Spencer, Iowa
Current Conditions -  °F | °C
As of 9:53 PM on Saturday 20 Dec 2014 (Local Time) from KSPW Reporting Station
Overcast Overcast  
Wind Chill: -5°   Ceiling: 600
Heat Index:   Visibility: 8mi
Dew Point: -2°   Wind: 10mph
Humidity: 88%   Direction: 170°S
Pressure: 30.02"   Gusts: NA
Location:  43.14°N, 95.14°W
Report Text: KSPW 210353Z AUTO 17009KT 8SM OVC006 00/M02 A3002 RMK AO2 SLP180 T00001017 TSNO
Loading
Personal Weather Stations






























Interactive Weather Map New forecast layout! Learn more

10-Day Weather Forecast

Advertisements
Track Severe Weather on mobile